Time,TemperatureF,DewpointF,PressureIn,WindDirection,WindDirectionDegrees,WindSpeedMPH,WindSpeedGustMPH,Humidity,HourlyPrecipIn,Conditions,Clouds,dailyrainin,SoftwareType,DateUTC
2013-08-04 00:00:00,67.5,65.4,30.13,NE,49,0.0,0.0,93,0.00,,,0.00,WeatherCatV1.21B27,2013-08-04 04:00:00,
2013-08-04 00:06:00,67.4,65.3,30.13,NE,49,0.0,0.0,93,0.00,,,0.00,WeatherCatV1.21B27,2013-08-04 04:06:00,
2013-08-04 00:11:00,67.2,65.1,30.13,NE,49,0.0,0.0,93,0.00,,,0.00,WeatherCatV1.21B27,2013-08-04 04:11:00,
2013-08-04 00:15:00,67.2,65.1,30.14,NE,49,0.0,0.0,93,0.00,,,0.00,WeatherCatV1.21B27,2013-08-04 04:15:00,
2013-08-04 00:20:00,67.0,64.9,30.14,NE,49,0.0,0.0,93,0.00,,,0.00,WeatherCatV1.21B27,2013-08-04 04:20:00,
2013-08-04 00:26:00,66.9,65.1,30.14,NE,49,0.0,0.0,94,0.00,,,0.00,WeatherCatV1.21B27,2013-08-04 04:26:00,
2013-08-04 00:30:00,66.8,65.0,30.14,NE,49,0.0,0.0,94,0.00,,,0.00,WeatherCatV1.21B27,2013-08-04 04:30:00,
2013-08-04 00:36:00,66.7,64.9,30.14,NE,49,0.0,0.0,94,0.00,,,0.00,WeatherCatV1.21B27,2013-08-04 04:36:00,
2013-08-04 00:41:00,66.7,64.9,30.14,NE,49,0.0,0.0,94,0.00,,,0.00,WeatherCatV1.21B27,2013-08-04 04:41:00,
2013-08-04 00:46:00,66.6,64.8,30.14,NE,49,0.0,0.0,94,0.00,,,0.00,WeatherCatV1.21B27,2013-08-04 04:46:00,
2013-08-04 00:50:00,66.6,64.8,30.14,NE,49,0.0,0.0,94,0.00,,,0.00,WeatherCatV1.21B27,2013-08-04 04:50:00,
2013-08-04 00:56:00,66.6,64.8,30.14,NE,49,0.0,0.0,94,0.00,,,0.00,WeatherCatV1.21B27,2013-08-04 04:56:00,
2013-08-04 01:01:00,66.5,64.7,30.14,NE,49,0.0,0.0,94,0.00,,,0.00,WeatherCatV1.21B27,2013-08-04 05:01:00,
2013-08-04 01:06:00,66.5,64.7,30.14,NE,49,0.0,0.0,94,0.00,,,0.00,WeatherCatV1.21B27,2013-08-04 05:06:00,
2013-08-04 01:11:00,66.4,64.6,30.14,NE,49,0.0,0.0,94,0.00,,,0.00,WeatherCatV1.21B27,2013-08-04 05:11:00,
2013-08-04 01:16:00,66.3,64.8,30.14,NE,49,0.0,0.0,95,0.00,,,0.00,WeatherCatV1.21B27,2013-08-04 05:16:00,
2013-08-04 01:21:00,66.3,64.8,30.14,NE,49,0.0,0.0,95,0.00,,,0.00,WeatherCatV1.21B27,2013-08-04 05:21:00,
2013-08-04 01:26:00,66.3,64.8,30.13,NE,49,0.0,0.0,95,0.00,,,0.00,WeatherCatV1.21B27,2013-08-04 05:26:00,
2013-08-04 01:31:00,66.3,64.8,30.14,NE,49,0.0,0.0,95,0.00,,,0.00,WeatherCatV1.21B27,2013-08-04 05:31:00,
2013-08-04 01:36:00,66.3,64.8,30.14,NE,49,0.0,0.0,95,0.00,,,0.00,WeatherCatV1.21B27,2013-08-04 05:36:00,
2013-08-04 01:41:00,66.2,64.7,30.13,NE,49,0.0,0.0,95,0.00,,,0.00,WeatherCatV1.21B27,2013-08-04 05:41:00,
2013-08-04 01:46:00,66.1,64.6,30.14,NE,49,0.0,0.0,95,0.00,,,0.00,WeatherCatV1.21B27,2013-08-04 05:46:00,
2013-08-04 01:50:00,66.1,64.6,30.13,NE,49,0.0,0.0,95,0.00,,,0.00,WeatherCatV1.21B27,2013-08-04 05:50:00,
2013-08-04 01:56:00,66.0,64.5,30.13,NE,49,0.0,0.0,95,0.00,,,0.00,WeatherCatV1.21B27,2013-08-04 05:56:00,
2013-08-04 02:01:00,66.1,64.6,30.13,NE,49,0.0,0.0,95,0.00,,,0.00,WeatherCatV1.21B27,2013-08-04 06:01:00,
2013-08-04 02:06:00,66.1,64.6,30.13,NE,49,0.0,0.0,95,0.00,,,0.00,WeatherCatV1.21B27,2013-08-04 06:06:00,
2013-08-04 02:10:00,66.1,64.6,30.13,NE,49,0.0,0.0,95,0.00,,,0.00,WeatherCatV1.21B27,2013-08-04 06:10:00,
2013-08-04 02:16:00,66.0,64.5,30.13,NE,49,0.0,0.0,95,0.00,,,0.00,WeatherCatV1.21B27,2013-08-04 06:16:00,
2013-08-04 02:21:00,65.9,64.4,30.12,NE,49,0.0,0.0,95,0.00,,,0.00,WeatherCatV1.21B27,2013-08-04 06:21:00,
2013-08-04 02:26:00,65.8,64.3,30.12,NE,49,0.0,0.0,95,0.00,,,0.00,WeatherCatV1.21B27,2013-08-04 06:26:00,
2013-08-04 02:30:00,65.8,64.3,30.12,NE,49,0.0,0.0,95,0.00,,,0.00,WeatherCatV1.21B27,2013-08-04 06:30:00,
2013-08-04 02:36:00,65.7,64.2,30.12,NE,49,0.0,0.0,95,0.00,,,0.00,WeatherCatV1.21B27,2013-08-04 06:36:00,
2013-08-04 02:40:00,65.6,64.1,30.12,NE,49,0.0,0.0,95,0.00,,,0.00,WeatherCatV1.21B27,2013-08-04 06:40:00,
2013-08-04 02:46:00,65.5,64.0,30.12,NE,49,0.0,0.0,95,0.00,,,0.00,WeatherCatV1.21B27,2013-08-04 06:46:00,
2013-08-04 02:51:00,65.5,64.3,30.12,NE,49,0.0,0.0,96,0.00,,,0.00,WeatherCatV1.21B27,2013-08-04 06:51:00,
2013-08-04 02:56:00,65.3,63.8,30.12,NE,49,0.0,0.0,95,0.00,,,0.00,WeatherCatV1.21B27,2013-08-04 06:56:00,
2013-08-04 03:00:00,65.3,64.1,30.12,NE,49,0.0,0.0,96,0.00,,,0.00,WeatherCatV1.21B27,2013-08-04 07:00:00,
2013-08-04 03:06:00,65.3,64.1,30.12,NE,49,0.0,0.0,96,0.00,,,0.00,WeatherCatV1.21B27,2013-08-04 07:06:00,
2013-08-04 03:11:00,65.3,64.1,30.12,NE,49,0.0,0.0,96,0.00,,,0.00,WeatherCatV1.21B27,2013-08-04 07:11:00,
2013-08-04 03:16:00,65.3,64.1,30.12,NE,49,0.0,1.0,96,0.00,,,0.00,WeatherCatV1.21B27,2013-08-04 07:16:00,
2013-08-04 03:21:00,65.3,64.1,30.11,NE,49,0.0,0.0,96,0.00,,,0.00,WeatherCatV1.21B27,2013-08-04 07:21:00,
2013-08-04 03:26:00,65.3,63.8,30.11,NE,49,0.0,0.0,95,0.00,,,0.00,WeatherCatV1.21B27,2013-08-04 07:26:00,
2013-08-04 03:31:00,65.2,63.7,30.11,NE,49,0.0,0.0,95,0.00,,,0.00,WeatherCatV1.21B27,2013-08-04 07:31:00,
2013-08-04 03:35:00,65.0,63.8,30.11,NE,49,0.0,0.0,96,0.00,,,0.00,WeatherCatV1.21B27,2013-08-04 07:35:00,
2013-08-04 03:41:00,64.9,63.7,30.11,NE,49,0.0,0.0,96,0.00,,,0.00,WeatherCatV1.21B27,2013-08-04 07:41:00,
2013-08-04 03:46:00,64.9,63.7,30.11,NE,49,0.0,0.0,96,0.00,,,0.00,WeatherCatV1.21B27,2013-08-04 07:46:00,
2013-08-04 03:50:00,65.0,63.8,30.12,NE,49,0.0,0.0,96,0.00,,,0.00,WeatherCatV1.21B27,2013-08-04 07:50:00,
2013-08-04 03:56:00,65.0,64.1,30.11,NE,49,0.0,0.0,97,0.00,,,0.00,WeatherCatV1.21B27,2013-08-04 07:56:00,
2013-08-04 04:01:00,65.1,64.2,30.11,NE,49,0.0,0.0,97,0.00,,,0.00,WeatherCatV1.21B27,2013-08-04 08:01:00,
2013-08-04 04:06:00,65.1,64.2,30.12,NE,49,0.0,1.0,97,0.00,,,0.00,WeatherCatV1.21B27,2013-08-04 08:06:00,
2013-08-04 04:11:00,65.2,64.3,30.12,NE,49,0.0,0.0,97,0.00,,,0.00,WeatherCatV1.21B27,2013-08-04 08:11:00,
2013-08-04 04:16:00,65.3,64.4,30.12,NE,49,0.0,0.0,97,0.00,,,0.00,WeatherCatV1.21B27,2013-08-04 08:16:00,
2013-08-04 04:20:00,65.4,64.2,30.12,NE,49,0.0,0.0,96,0.00,,,0.00,WeatherCatV1.21B27,2013-08-04 08:20:00,
2013-08-04 04:26:00,65.2,64.0,30.12,NE,49,0.0,0.0,96,0.00,,,0.00,WeatherCatV1.21B27,2013-08-04 08:26:00,
2013-08-04 04:31:00,65.0,63.8,30.11,NE,49,0.0,0.0,96,0.00,,,0.00,WeatherCatV1.21B27,2013-08-04 08:31:00,
2013-08-04 04:35:00,64.9,63.7,30.11,NE,49,0.0,0.0,96,0.00,,,0.00,WeatherCatV1.21B27,2013-08-04 08:35:00,
2013-08-04 04:41:00,64.8,63.6,30.11,NE,49,0.0,0.0,96,0.00,,,0.00,WeatherCatV1.21B27,2013-08-04 08:41:00,
2013-08-04 04:45:00,64.7,63.5,30.11,NE,49,0.0,0.0,96,0.00,,,0.00,WeatherCatV1.21B27,2013-08-04 08:45:00,
2013-08-04 04:51:00,64.6,63.4,30.12,ENE,66,0.0,1.0,96,0.00,,,0.00,WeatherCatV1.21B27,2013-08-04 08:51:00,
2013-08-04 04:56:00,65.1,64.5,30.12,North,5,0.0,0.0,98,0.00,,,0.00,WeatherCatV1.21B27,2013-08-04 08:56:00,
2013-08-04 05:01:00,65.6,65.0,30.12,North,5,0.0,0.0,98,0.00,,,0.00,WeatherCatV1.21B27,2013-08-04 09:01:00,
2013-08-04 05:06:00,65.9,65.0,30.12,NNE,24,0.0,0.0,97,0.00,,,0.00,WeatherCatV1.21B27,2013-08-04 09:06:00,
2013-08-04 05:11:00,66.2,65.3,30.12,NE,35,0.0,0.0,97,0.00,,,0.00,WeatherCatV1.21B27,2013-08-04 09:11:00,
2013-08-04 05:16:00,66.5,65.6,30.12,ENE,74,0.0,1.0,97,0.00,,,0.00,WeatherCatV1.21B27,2013-08-04 09:16:00,
2013-08-04 05:21:00,66.6,65.4,30.12,East,98,0.0,1.0,96,0.00,,,0.00,WeatherCatV1.21B27,2013-08-04 09:21:00,
2013-08-04 05:26:00,66.7,65.5,30.12,East,93,0.0,3.0,96,0.00,,,0.00,WeatherCatV1.21B27,2013-08-04 09:26:00,
2013-08-04 05:31:00,66.8,65.6,30.12,East,82,0.0,2.0,96,0.00,,,0.00,WeatherCatV1.21B27,2013-08-04 09:31:00,
2013-08-04 05:36:00,66.8,65.6,30.12,ENE,71,1.0,3.0,96,0.00,,,0.00,WeatherCatV1.21B27,2013-08-04 09:36:00,
2013-08-04 05:40:00,66.8,65.6,30.13,ENE,71,0.0,0.0,96,0.00,,,0.00,WeatherCatV1.21B27,2013-08-04 09:40:00,
2013-08-04 05:45:00,66.8,65.6,30.13,ENE,71,0.0,0.0,96,0.00,,,0.00,WeatherCatV1.21B27,2013-08-04 09:45:00,
2013-08-04 05:51:00,66.8,65.6,30.13,ENE,61,2.0,4.0,96,0.00,,,0.00,WeatherCatV1.21B27,2013-08-04 09:51:00,
2013-08-04 05:56:00,66.9,65.7,30.13,East,92,0.0,1.0,96,0.00,,,0.00,WeatherCatV1.21B27,2013-08-04 09:56:00,
2013-08-04 06:01:00,67.1,65.9,30.13,ESE,114,0.0,2.0,96,0.00,,,0.00,WeatherCatV1.21B27,2013-08-04 10:01:00,
2013-08-04 06:06:00,67.1,65.9,30.13,East,86,0.0,2.0,96,0.00,,,0.00,WeatherCatV1.21B27,2013-08-04 10:06:00,
2013-08-04 06:11:00,67.2,66.0,30.12,East,86,0.0,0.0,96,0.00,,,0.00,WeatherCatV1.21B27,2013-08-04 10:11:00,
2013-08-04 06:16:00,67.1,65.9,30.13,ENE,63,1.0,1.0,96,0.00,,,0.00,WeatherCatV1.21B27,2013-08-04 10:16:00,
2013-08-04 06:21:00,67.2,66.3,30.13,East,88,0.0,5.0,97,0.00,,,0.00,WeatherCatV1.21B27,2013-08-04 10:21:00,
2013-08-04 06:26:00,67.3,66.4,30.13,East,90,0.0,2.0,97,0.00,,,0.01,WeatherCatV1.21B27,2013-08-04 10:26:00,
2013-08-04 06:31:00,67.4,66.2,30.13,NE,52,0.0,2.0,96,0.00,,,0.01,WeatherCatV1.21B27,2013-08-04 10:31:00,
2013-08-04 06:36:00,67.4,66.2,30.13,East,80,0.0,0.0,96,0.00,,,0.01,WeatherCatV1.21B27,2013-08-04 10:36:00,
2013-08-04 06:41:00,67.4,66.2,30.13,East,92,0.0,0.0,96,0.00,,,0.01,WeatherCatV1.21B27,2013-08-04 10:41:00,
2013-08-04 06:46:00,67.4,66.2,30.13,East,92,0.0,0.0,96,0.00,,,0.01,WeatherCatV1.21B27,2013-08-04 10:46:00,
2013-08-04 06:51:00,67.3,66.1,30.13,East,100,0.0,1.0,96,0.00,,,0.01,WeatherCatV1.21B27,2013-08-04 10:51:00,
2013-08-04 06:56:00,67.3,66.4,30.13,SE,140,0.0,0.0,97,0.00,,,0.01,WeatherCatV1.21B27,2013-08-04 10:56:00,
2013-08-04 07:01:00,67.3,66.4,30.13,SE,125,0.0,0.0,97,0.00,,,0.01,WeatherCatV1.21B27,2013-08-04 11:01:00,
2013-08-04 07:05:00,67.3,66.4,30.13,ESE,117,0.0,0.0,97,0.00,,,0.01,WeatherCatV1.21B27,2013-08-04 11:05:00,
2013-08-04 07:11:00,67.3,66.4,30.12,East,91,1.0,2.0,97,0.00,,,0.01,WeatherCatV1.21B27,2013-08-04 11:11:00,
2013-08-04 07:16:00,67.3,66.4,30.13,East,90,1.0,1.0,97,0.00,,,0.01,WeatherCatV1.21B27,2013-08-04 11:16:00,
2013-08-04 07:21:00,67.4,66.5,30.13,NE,39,0.0,0.0,97,0.00,,,0.01,WeatherCatV1.21B27,2013-08-04 11:21:00,
2013-08-04 07:26:00,67.4,66.5,30.13,East,93,0.0,2.0,97,0.00,,,0.01,WeatherCatV1.21B27,2013-08-04 11:26:00,
2013-08-04 07:30:00,67.5,66.6,30.13,East,93,0.0,0.0,97,0.00,,,0.01,WeatherCatV1.21B27,2013-08-04 11:30:00,
2013-08-04 07:36:00,67.6,66.7,30.14,East,93,1.0,1.0,97,0.00,,,0.01,WeatherCatV1.21B27,2013-08-04 11:36:00,
2013-08-04 07:40:00,67.7,66.8,30.14,ESE,111,0.0,0.0,97,0.00,,,0.01,WeatherCatV1.21B27,2013-08-04 11:40:00,
2013-08-04 07:46:00,67.7,66.8,30.14,ESE,111,0.0,0.0,97,0.00,,,0.01,WeatherCatV1.21B27,2013-08-04 11:46:00,
2013-08-04 07:51:00,67.8,66.9,30.14,SSE,168,1.0,2.0,97,0.00,,,0.01,WeatherCatV1.21B27,2013-08-04 11:51:00,
2013-08-04 07:56:00,67.8,66.9,30.14,SSE,167,0.0,0.0,97,0.00,,,0.01,WeatherCatV1.21B27,2013-08-04 11:56:00,
2013-08-04 08:01:00,67.9,67.0,30.14,SSE,167,0.0,0.0,97,0.00,,,0.01,WeatherCatV1.21B27,2013-08-04 12:01:00,
2013-08-04 08:06:00,67.9,67.0,30.14,SSE,168,0.0,0.0,97,0.00,,,0.01,WeatherCatV1.21B27,2013-08-04 12:06:00,
2013-08-04 08:11:00,68.0,67.1,30.14,SSE,168,0.0,0.0,97,0.00,,,0.01,WeatherCatV1.21B27,2013-08-04 12:11:00,
2013-08-04 08:16:00,68.0,67.1,30.15,SSE,168,0.0,0.0,97,0.00,,,0.01,WeatherCatV1.21B27,2013-08-04 12:16:00,
2013-08-04 08:21:00,68.1,67.2,30.15,SW,215,0.0,2.0,97,0.00,,,0.01,WeatherCatV1.21B27,2013-08-04 12:21:00,
2013-08-04 08:25:00,68.1,67.2,30.15,SW,215,0.0,0.0,97,0.00,,,0.01,WeatherCatV1.21B27,2013-08-04 12:25:00,
2013-08-04 08:31:00,68.2,67.3,30.15,SW,215,0.0,2.0,97,0.00,,,0.01,WeatherCatV1.21B27,2013-08-04 12:31:00,
2013-08-04 08:35:00,68.4,67.5,30.15,SSW,197,0.0,2.0,97,0.00,,,0.01,WeatherCatV1.21B27,2013-08-04 12:35:00,
2013-08-04 08:46:00,68.7,67.8,30.15,SW,216,1.0,1.0,97,0.00,,,0.01,WeatherCatV1.21B27,2013-08-04 12:46:00,
2013-08-04 08:51:00,69.0,67.8,30.15,SW,224,1.0,4.0,96,0.00,,,0.01,WeatherCatV1.21B27,2013-08-04 12:51:00,
2013-08-04 08:56:00,69.3,67.8,30.15,SW,235,0.0,1.0,95,0.00,,,0.01,WeatherCatV1.21B27,2013-08-04 12:56:00,
2013-08-04 09:01:00,69.5,68.0,30.15,SW,230,3.0,3.0,95,0.00,,,0.01,WeatherCatV1.21B27,2013-08-04 13:01:00,
2013-08-04 09:06:00,69.7,68.2,30.15,SSW,211,1.0,1.0,95,0.00,,,0.01,WeatherCatV1.21B27,2013-08-04 13:06:00,
2013-08-04 09:11:00,70.0,68.5,30.15,SSW,202,2.0,3.0,95,0.00,,,0.01,WeatherCatV1.21B27,2013-08-04 13:11:00,
2013-08-04 09:16:00,70.3,68.5,30.15,South,191,2.0,4.0,94,0.00,,,0.01,WeatherCatV1.21B27,2013-08-04 13:16:00,
2013-08-04 09:21:00,70.6,68.5,30.16,South,186,1.0,3.0,93,0.00,,,0.01,WeatherCatV1.21B27,2013-08-04 13:21:00,
2013-08-04 09:26:00,71.0,68.6,30.15,SW,233,0.0,1.0,92,0.00,,,0.01,WeatherCatV1.21B27,2013-08-04 13:26:00,
2013-08-04 09:31:00,71.2,68.8,30.15,South,178,0.0,0.0,92,0.00,,,0.01,WeatherCatV1.21B27,2013-08-04 13:31:00,
2013-08-04 09:36:00,71.5,68.7,30.15,NE,49,1.0,2.0,91,0.00,,,0.01,WeatherCatV1.21B27,2013-08-04 13:36:00,
2013-08-04 09:41:00,71.4,68.3,30.15,SSW,202,0.0,2.0,90,0.00,,,0.01,WeatherCatV1.21B27,2013-08-04 13:41:00,
2013-08-04 09:46:00,71.5,68.4,30.15,SE,145,1.0,1.0,90,0.00,,,0.01,WeatherCatV1.21B27,2013-08-04 13:46:00,
2013-08-04 09:51:00,71.7,68.3,30.15,SE,141,2.0,3.0,89,0.00,,,0.01,WeatherCatV1.21B27,2013-08-04 13:51:00,
2013-08-04 09:56:00,72.2,68.8,30.15,SSW,193,0.0,7.0,89,0.00,,,0.01,WeatherCatV1.21B27,2013-08-04 13:56:00,
2013-08-04 10:00:00,72.5,68.1,30.15,South,179,3.0,11.0,86,0.00,,,0.01,WeatherCatV1.21B27,2013-08-04 14:00:00,
2013-08-04 10:06:00,72.8,68.7,30.15,SSW,213,2.0,5.0,87,0.00,,,0.01,WeatherCatV1.21B27,2013-08-04 14:06:00,
2013-08-04 10:10:00,73.0,68.6,30.15,South,176,1.0,4.0,86,0.00,,,0.01,WeatherCatV1.21B27,2013-08-04 14:10:00,
2013-08-04 10:16:00,73.0,67.9,30.15,South,178,1.0,6.0,84,0.00,,,0.01,WeatherCatV1.21B27,2013-08-04 14:16:00,
2013-08-04 10:21:00,73.1,68.3,30.15,SSW,202,2.0,2.0,85,0.00,,,0.01,WeatherCatV1.21B27,2013-08-04 14:21:00,
2013-08-04 10:25:00,73.5,68.7,30.15,SSW,210,3.0,4.0,85,0.00,,,0.01,WeatherCatV1.21B27,2013-08-04 14:25:00,
2013-08-04 10:31:00,74.0,68.8,30.15,SSW,203,0.0,2.0,84,0.00,,,0.01,WeatherCatV1.21B27,2013-08-04 14:31:00,
2013-08-04 10:41:00,74.7,69.2,30.15,SSE,159,2.0,6.0,83,0.00,,,0.01,WeatherCatV1.21B27,2013-08-04 14:41:00,
2013-08-04 10:46:00,75.0,68.8,30.15,SSE,168,0.0,2.0,81,0.00,,,0.01,WeatherCatV1.21B27,2013-08-04 14:46:00,
2013-08-04 10:51:00,75.1,68.9,30.15,South,182,1.0,1.0,81,0.00,,,0.01,WeatherCatV1.21B27,2013-08-04 14:51:00,
2013-08-04 10:56:00,75.3,69.4,30.15,WSW,248,2.0,9.0,82,0.00,,,0.01,WeatherCatV1.21B27,2013-08-04 14:56:00,
2013-08-04 11:01:00,75.4,68.4,30.15,South,190,2.0,6.0,79,0.00,,,0.01,WeatherCatV1.21B27,2013-08-04 15:01:00,
2013-08-04 11:05:00,75.5,68.1,30.15,SSW,209,0.0,4.0,78,0.00,,,0.01,WeatherCatV1.21B27,2013-08-04 15:05:00,
2013-08-04 11:11:00,75.6,68.6,30.15,East,101,0.0,1.0,79,0.00,,,0.01,WeatherCatV1.21B27,2013-08-04 15:11:00,
2013-08-04 11:15:00,76.1,69.1,30.15,SW,225,2.0,4.0,79,0.00,,,0.01,WeatherCatV1.21B27,2013-08-04 15:15:00,
2013-08-04 11:21:00,76.5,69.1,30.15,South,175,2.0,3.0,78,0.00,,,0.01,WeatherCatV1.21B27,2013-08-04 15:21:00,
2013-08-04 11:26:00,76.5,68.3,30.15,SW,217,1.0,2.0,76,0.00,,,0.01,WeatherCatV1.21B27,2013-08-04 15:26:00,
2013-08-04 11:31:00,76.5,68.3,30.15,SW,224,1.0,2.0,76,0.00,,,0.01,WeatherCatV1.21B27,2013-08-04 15:31:00,
2013-08-04 11:36:00,76.4,69.0,30.15,South,169,2.0,3.0,78,0.00,,,0.01,WeatherCatV1.21B27,2013-08-04 15:36:00,
2013-08-04 11:46:00,75.8,67.3,30.16,South,177,2.0,3.0,75,0.00,,,0.01,WeatherCatV1.21B27,2013-08-04 15:46:00,
2013-08-04 11:51:00,75.4,67.3,30.15,SW,225,0.0,2.0,76,0.00,,,0.01,WeatherCatV1.21B27,2013-08-04 15:51:00,
2013-08-04 11:55:00,75.5,67.4,30.15,South,185,3.0,3.0,76,0.00,,,0.01,WeatherCatV1.21B27,2013-08-04 15:55:00,
2013-08-04 12:01:00,75.6,67.9,30.16,South,183,0.0,6.0,77,0.00,,,0.01,WeatherCatV1.21B27,2013-08-04 16:01:00,
2013-08-04 12:05:00,75.5,67.8,30.16,SSW,207,5.0,5.0,77,0.00,,,0.01,WeatherCatV1.21B27,2013-08-04 16:05:00,
2013-08-04 12:10:00,75.8,66.9,30.16,SW,217,7.0,7.0,74,0.00,,,0.01,WeatherCatV1.21B27,2013-08-04 16:10:00,
2013-08-04 12:16:00,76.1,67.2,30.16,WSW,245,5.0,5.0,74,0.00,,,0.01,WeatherCatV1.21B27,2013-08-04 16:16:00,
2013-08-04 12:21:00,76.2,68.1,30.16,South,182,1.0,4.0,76,0.00,,,0.01,WeatherCatV1.21B27,2013-08-04 16:21:00,
2013-08-04 12:26:00,76.3,68.2,30.16,SW,219,2.0,3.0,76,0.00,,,0.01,WeatherCatV1.21B27,2013-08-04 16:26:00,
2013-08-04 12:30:00,76.6,67.7,30.15,SSW,200,3.0,6.0,74,0.00,,,0.01,WeatherCatV1.21B27,2013-08-04 16:30:00,
2013-08-04 12:36:00,77.0,68.1,30.15,SSE,167,0.0,2.0,74,0.00,,,0.01,WeatherCatV1.21B27,2013-08-04 16:36:00,
2013-08-04 12:41:00,77.2,65.8,30.15,SSW,202,1.0,6.0,68,0.00,,,0.01,WeatherCatV1.21B27,2013-08-04 16:41:00,
2013-08-04 12:46:00,77.1,66.5,30.15,South,171,1.0,5.0,70,0.00,,,0.01,WeatherCatV1.21B27,2013-08-04 16:46:00,
2013-08-04 12:51:00,76.9,66.8,30.15,SSW,202,2.0,4.0,71,0.00,,,0.01,WeatherCatV1.21B27,2013-08-04 16:51:00,
2013-08-04 12:56:00,76.6,66.5,30.15,South,175,2.0,4.0,71,0.00,,,0.01,WeatherCatV1.21B27,2013-08-04 16:56:00,
2013-08-04 13:01:00,76.2,66.1,30.15,SSW,196,1.0,6.0,71,0.00,,,0.01,WeatherCatV1.21B27,2013-08-04 17:01:00,
2013-08-04 13:06:00,76.1,66.8,30.15,SW,218,2.0,5.0,73,0.00,,,0.01,WeatherCatV1.21B27,2013-08-04 17:06:00,
2013-08-04 13:11:00,76.5,66.4,30.15,SSW,213,0.0,4.0,71,0.00,,,0.01,WeatherCatV1.21B27,2013-08-04 17:11:00,
2013-08-04 13:16:00,76.7,66.6,30.15,SSW,205,3.0,4.0,71,0.00,,,0.01,WeatherCatV1.21B27,2013-08-04 17:16:00,
2013-08-04 13:21:00,76.8,65.8,30.15,South,185,2.0,5.0,69,0.00,,,0.01,WeatherCatV1.21B27,2013-08-04 17:21:00,
2013-08-04 13:26:00,76.7,66.2,30.14,South,182,2.0,6.0,70,0.00,,,0.01,WeatherCatV1.21B27,2013-08-04 17:26:00,
2013-08-04 13:31:00,76.7,66.2,30.15,South,188,1.0,5.0,70,0.00,,,0.01,WeatherCatV1.21B27,2013-08-04 17:31:00,
2013-08-04 13:36:00,76.6,65.7,30.15,SW,223,1.0,5.0,69,0.00,,,0.01,WeatherCatV1.21B27,2013-08-04 17:36:00,
2013-08-04 13:41:00,76.7,65.3,30.15,SW,215,0.0,3.0,68,0.00,,,0.01,WeatherCatV1.21B27,2013-08-04 17:41:00,
2013-08-04 13:46:00,76.8,65.0,30.14,South,177,1.0,2.0,67,0.00,,,0.01,WeatherCatV1.21B27,2013-08-04 17:46:00,
2013-08-04 13:51:00,76.8,65.4,30.14,South,177,1.0,6.0,68,0.00,,,0.01,WeatherCatV1.21B27,2013-08-04 17:51:00,
2013-08-04 13:56:00,77.0,64.8,30.15,South,182,3.0,4.0,66,0.00,,,0.01,WeatherCatV1.21B27,2013-08-04 17:56:00,
2013-08-04 14:01:00,76.9,65.5,30.14,SSW,194,4.0,7.0,68,0.00,,,0.01,WeatherCatV1.21B27,2013-08-04 18:01:00,
2013-08-04 14:06:00,76.9,65.5,30.14,SW,219,3.0,4.0,68,0.00,,,0.01,WeatherCatV1.21B27,2013-08-04 18:06:00,
2013-08-04 14:11:00,76.7,66.6,30.14,WSW,244,4.0,5.0,71,0.00,,,0.01,WeatherCatV1.21B27,2013-08-04 18:11:00,
2013-08-04 14:15:00,76.5,65.1,30.14,SSW,198,0.0,4.0,68,0.00,,,0.01,WeatherCatV1.21B27,2013-08-04 18:15:00,
2013-08-04 14:21:00,76.5,66.4,30.14,SSE,167,1.0,3.0,71,0.00,,,0.01,WeatherCatV1.21B27,2013-08-04 18:21:00,
2013-08-04 14:26:00,76.6,66.1,30.14,ESE,103,3.0,5.0,70,0.00,,,0.01,WeatherCatV1.21B27,2013-08-04 18:26:00,
2013-08-04 14:31:00,76.8,65.8,30.14,SSW,213,1.0,6.0,69,0.00,,,0.01,WeatherCatV1.21B27,2013-08-04 18:31:00,
2013-08-04 14:36:00,77.0,66.9,30.14,WSW,250,1.0,1.0,71,0.00,,,0.01,WeatherCatV1.21B27,2013-08-04 18:36:00,
2013-08-04 14:40:00,77.3,65.9,30.14,ENE,69,1.0,4.0,68,0.00,,,0.01,WeatherCatV1.21B27,2013-08-04 18:40:00,
2013-08-04 14:46:00,77.4,66.0,30.14,SSW,199,2.0,5.0,68,0.00,,,0.01,WeatherCatV1.21B27,2013-08-04 18:46:00,
2013-08-04 14:51:00,77.5,66.1,30.14,SSE,167,0.0,3.0,68,0.00,,,0.01,WeatherCatV1.21B27,2013-08-04 18:51:00,
2013-08-04 14:56:00,77.8,65.1,30.15,SW,221,5.0,6.0,65,0.00,,,0.01,WeatherCatV1.21B27,2013-08-04 18:56:00,
2013-08-04 15:01:00,77.8,65.5,30.14,SSW,196,2.0,7.0,66,0.00,,,0.01,WeatherCatV1.21B27,2013-08-04 19:01:00,
2013-08-04 15:06:00,77.8,64.6,30.14,South,171,1.0,4.0,64,0.00,,,0.01,WeatherCatV1.21B27,2013-08-04 19:06:00,
2013-08-04 15:10:00,78.0,65.3,30.14,SSW,200,2.0,4.0,65,0.00,,,0.01,WeatherCatV1.21B27,2013-08-04 19:10:00,
2013-08-04 15:16:00,78.0,66.1,30.14,SSW,192,1.0,5.0,67,0.00,,,0.01,WeatherCatV1.21B27,2013-08-04 19:16:00,
2013-08-04 15:21:00,77.6,65.3,30.14,SSW,201,4.0,5.0,66,0.00,,,0.01,WeatherCatV1.21B27,2013-08-04 19:21:00,
2013-08-04 15:25:00,77.4,65.6,30.14,SSE,147,3.0,4.0,67,0.00,,,0.01,WeatherCatV1.21B27,2013-08-04 19:25:00,
2013-08-04 15:31:00,77.3,65.0,30.14,SSW,205,3.0,5.0,66,0.00,,,0.01,WeatherCatV1.21B27,2013-08-04 19:31:00,
2013-08-04 15:41:00,77.1,64.8,30.14,SSE,154,1.0,4.0,66,0.00,,,0.01,WeatherCatV1.21B27,2013-08-04 19:41:00,
2013-08-04 15:46:00,77.0,65.2,30.14,SSE,160,0.0,3.0,67,0.00,,,0.01,WeatherCatV1.21B27,2013-08-04 19:46:00,
2013-08-04 15:50:00,77.1,65.3,30.14,SE,146,0.0,1.0,67,0.00,,,0.01,WeatherCatV1.21B27,2013-08-04 19:50:00,
2013-08-04 15:56:00,77.2,65.4,30.14,SW,223,0.0,4.0,67,0.00,,,0.01,WeatherCatV1.21B27,2013-08-04 19:56:00,
2013-08-04 16:00:00,77.5,65.2,30.14,WNW,283,3.0,4.0,66,0.00,,,0.01,WeatherCatV1.21B27,2013-08-04 20:00:00,
2013-08-04 16:06:00,77.9,65.2,30.14,SW,225,1.0,2.0,65,0.00,,,0.01,WeatherCatV1.21B27,2013-08-04 20:06:00,
2013-08-04 16:10:00,78.1,65.3,30.14,South,175,2.0,3.0,65,0.00,,,0.01,WeatherCatV1.21B27,2013-08-04 20:10:00,
2013-08-04 16:16:00,77.8,65.9,30.13,SE,143,1.0,1.0,67,0.00,,,0.01,WeatherCatV1.21B27,2013-08-04 20:16:00,
2013-08-04 16:21:00,77.7,65.8,30.13,South,174,2.0,2.0,67,0.00,,,0.01,WeatherCatV1.21B27,2013-08-04 20:21:00,
2013-08-04 16:26:00,77.6,64.9,30.13,South,170,2.0,4.0,65,0.00,,,0.01,WeatherCatV1.21B27,2013-08-04 20:26:00,
2013-08-04 16:31:00,77.0,64.3,30.13,SW,219,1.0,4.0,65,0.00,,,0.01,WeatherCatV1.21B27,2013-08-04 20:31:00,
2013-08-04 16:36:00,76.6,64.4,30.13,South,188,1.0,7.0,66,0.00,,,0.01,WeatherCatV1.21B27,2013-08-04 20:36:00,
2013-08-04 16:40:00,76.2,64.4,30.13,SSW,192,1.0,3.0,67,0.00,,,0.01,WeatherCatV1.21B27,2013-08-04 20:40:00,
2013-08-04 16:46:00,76.3,64.1,30.13,SW,216,3.0,5.0,66,0.00,,,0.01,WeatherCatV1.21B27,2013-08-04 20:46:00,
2013-08-04 16:51:00,76.3,64.9,30.13,South,169,0.0,2.0,68,0.00,,,0.01,WeatherCatV1.21B27,2013-08-04 20:51:00,
2013-08-04 16:56:00,76.4,65.0,30.13,SW,224,0.0,1.0,68,0.00,,,0.01,WeatherCatV1.21B27,2013-08-04 20:56:00,
2013-08-04 17:05:00,76.5,65.6,30.13,South,184,1.0,2.0,69,0.00,,,0.01,WeatherCatV1.21B27,2013-08-04 21:05:00,
2013-08-04 17:11:00,76.5,65.6,30.13,SSW,201,0.0,1.0,69,0.00,,,0.01,WeatherCatV1.21B27,2013-08-04 21:11:00,
2013-08-04 17:16:00,76.7,65.7,30.13,SW,220,0.0,1.0,69,0.00,,,0.01,WeatherCatV1.21B27,2013-08-04 21:16:00,
2013-08-04 17:21:00,76.8,65.4,30.13,South,186,0.0,3.0,68,0.00,,,0.01,WeatherCatV1.21B27,2013-08-04 21:21:00,
2013-08-04 17:26:00,76.6,64.4,30.13,SW,217,0.0,1.0,66,0.00,,,0.01,WeatherCatV1.21B27,2013-08-04 21:26:00,
2013-08-04 17:31:00,76.6,64.4,30.13,SW,217,1.0,1.0,66,0.00,,,0.01,WeatherCatV1.21B27,2013-08-04 21:31:00,
2013-08-04 17:35:00,76.5,63.4,30.13,East,98,0.0,5.0,64,0.00,,,0.01,WeatherCatV1.21B27,2013-08-04 21:35:00,
2013-08-04 17:41:00,76.6,64.4,30.13,SSW,196,0.0,2.0,66,0.00,,,0.01,WeatherCatV1.21B27,2013-08-04 21:41:00,
2013-08-04 17:45:00,76.7,64.9,30.13,SSE,158,0.0,1.0,67,0.00,,,0.01,WeatherCatV1.21B27,2013-08-04 21:45:00,
2013-08-04 17:51:00,76.4,64.6,30.13,South,190,2.0,4.0,67,0.00,,,0.01,WeatherCatV1.21B27,2013-08-04 21:51:00,
2013-08-04 17:56:00,76.1,63.9,30.13,SSW,203,0.0,3.0,66,0.00,,,0.01,WeatherCatV1.21B27,2013-08-04 21:56:00,
2013-08-04 18:00:00,75.9,65.0,30.12,SSE,167,0.0,0.0,69,0.00,,,0.01,WeatherCatV1.21B27,2013-08-04 22:00:00,
2013-08-04 18:06:00,75.8,64.5,30.13,SW,220,0.0,2.0,68,0.00,,,0.01,WeatherCatV1.21B27,2013-08-04 22:06:00,
2013-08-04 18:11:00,75.7,64.8,30.13,SSW,196,0.0,1.0,69,0.00,,,0.01,WeatherCatV1.21B27,2013-08-04 22:11:00,
2013-08-04 18:16:00,75.4,64.9,30.13,SSW,193,0.0,0.0,70,0.00,,,0.01,WeatherCatV1.21B27,2013-08-04 22:16:00,
2013-08-04 18:21:00,75.2,65.1,30.13,SSE,159,0.0,1.0,71,0.00,,,0.01,WeatherCatV1.21B27,2013-08-04 22:21:00,
2013-08-04 18:26:00,75.1,64.6,30.13,SSE,165,0.0,1.0,70,0.00,,,0.01,WeatherCatV1.21B27,2013-08-04 22:26:00,
2013-08-04 18:31:00,74.8,64.8,30.12,SSE,165,0.0,0.0,71,0.00,,,0.01,WeatherCatV1.21B27,2013-08-04 22:31:00,
2013-08-04 18:36:00,74.6,65.0,30.12,SSE,167,0.0,1.0,72,0.00,,,0.01,WeatherCatV1.21B27,2013-08-04 22:36:00,
2013-08-04 18:41:00,74.4,64.4,30.13,SSE,167,0.0,1.0,71,0.00,,,0.01,WeatherCatV1.21B27,2013-08-04 22:41:00,
2013-08-04 18:46:00,74.3,65.5,30.12,SSE,167,0.0,0.0,74,0.00,,,0.01,WeatherCatV1.21B27,2013-08-04 22:46:00,
2013-08-04 18:51:00,74.2,65.4,30.12,SSE,159,0.0,0.0,74,0.00,,,0.01,WeatherCatV1.21B27,2013-08-04 22:51:00,
2013-08-04 18:56:00,74.0,65.9,30.12,SSE,159,0.0,0.0,76,0.00,,,0.01,WeatherCatV1.21B27,2013-08-04 22:56:00,
2013-08-04 19:06:00,73.7,65.7,30.13,South,177,0.0,0.0,76,0.00,,,0.01,WeatherCatV1.21B27,2013-08-04 23:06:00,
2013-08-04 19:11:00,73.5,65.5,30.13,South,177,0.0,1.0,76,0.00,,,0.01,WeatherCatV1.21B27,2013-08-04 23:11:00,
2013-08-04 19:16:00,73.2,65.2,30.13,South,176,0.0,1.0,76,0.00,,,0.01,WeatherCatV1.21B27,2013-08-04 23:16:00,
2013-08-04 19:20:00,73.0,65.3,30.13,South,177,0.0,0.0,77,0.00,,,0.01,WeatherCatV1.21B27,2013-08-04 23:20:00,
2013-08-04 19:26:00,72.8,65.5,30.14,South,176,0.0,0.0,78,0.00,,,0.01,WeatherCatV1.21B27,2013-08-04 23:26:00,
2013-08-04 19:31:00,72.4,64.4,30.14,South,176,0.0,0.0,76,0.00,,,0.01,WeatherCatV1.21B27,2013-08-04 23:31:00,
2013-08-04 19:35:00,72.1,64.8,30.14,South,176,0.0,0.0,78,0.00,,,0.01,WeatherCatV1.21B27,2013-08-04 23:35:00,
2013-08-04 19:40:00,71.8,64.2,30.14,South,176,0.0,0.0,77,0.00,,,0.01,WeatherCatV1.21B27,2013-08-04 23:40:00,
2013-08-04 19:45:00,71.5,64.3,30.14,South,176,0.0,0.0,78,0.00,,,0.01,WeatherCatV1.21B27,2013-08-04 23:45:00,
2013-08-04 19:51:00,71.2,64.3,30.14,South,176,0.0,0.0,79,0.00,,,0.01,WeatherCatV1.21B27,2013-08-04 23:51:00,
2013-08-04 19:56:00,71.0,63.8,30.14,South,176,0.0,0.0,78,0.00,,,0.01,WeatherCatV1.21B27,2013-08-04 23:56:00,
2013-08-04 20:01:00,70.7,63.1,30.14,South,176,0.0,0.0,77,0.00,,,0.01,WeatherCatV1.21B27,2013-08-05 00:01:00,
2013-08-04 20:06:00,70.5,63.3,30.14,South,176,0.0,1.0,78,0.00,,,0.01,WeatherCatV1.21B27,2013-08-05 00:06:00,
2013-08-04 20:11:00,70.3,62.7,30.14,ESE,119,1.0,1.0,77,0.00,,,0.01,WeatherCatV1.21B27,2013-08-05 00:11:00,
2013-08-04 20:16:00,70.0,62.8,30.14,ENE,74,0.0,1.0,78,0.00,,,0.01,WeatherCatV1.21B27,2013-08-05 00:16:00,
2013-08-04 20:21:00,69.7,62.9,30.14,ENE,74,1.0,1.0,79,0.00,,,0.01,WeatherCatV1.21B27,2013-08-05 00:21:00,
2013-08-04 20:25:00,69.5,63.4,30.14,ENE,74,0.0,1.0,81,0.00,,,0.01,WeatherCatV1.21B27,2013-08-05 00:25:00,
2013-08-04 20:31:00,69.1,62.7,30.14,ENE,74,0.0,1.0,80,0.00,,,0.01,WeatherCatV1.21B27,2013-08-05 00:31:00,
2013-08-04 20:36:00,68.9,63.5,30.15,ENE,74,0.0,1.0,83,0.00,,,0.01,WeatherCatV1.21B27,2013-08-05 00:36:00,
2013-08-04 20:40:00,68.5,63.1,30.15,ENE,74,0.0,0.0,83,0.00,,,0.01,WeatherCatV1.21B27,2013-08-05 00:40:00,
2013-08-04 20:46:00,68.2,62.8,30.15,ENE,74,0.0,0.0,83,0.00,,,0.01,WeatherCatV1.21B27,2013-08-05 00:46:00,
2013-08-04 20:50:00,67.9,62.5,30.15,ENE,74,0.0,1.0,83,0.00,,,0.01,WeatherCatV1.21B27,2013-08-05 00:50:00,
2013-08-04 20:56:00,67.6,62.9,30.15,ENE,74,0.0,0.0,85,0.00,,,0.01,WeatherCatV1.21B27,2013-08-05 00:56:00,
2013-08-04 21:00:00,67.4,62.7,30.15,ENE,74,0.0,0.0,85,0.00,,,0.01,WeatherCatV1.21B27,2013-08-05 01:00:00,
2013-08-04 21:06:00,67.1,62.8,30.15,ENE,74,0.0,0.0,86,0.00,,,0.01,WeatherCatV1.21B27,2013-08-05 01:06:00,
2013-08-04 21:11:00,67.0,62.7,30.15,ENE,74,0.0,0.0,86,0.00,,,0.01,WeatherCatV1.21B27,2013-08-05 01:11:00,
2013-08-04 21:16:00,66.8,61.8,30.15,ENE,74,0.0,1.0,84,0.00,,,0.01,WeatherCatV1.21B27,2013-08-05 01:16:00,
2013-08-04 21:21:00,66.8,62.1,30.15,ENE,71,1.0,1.0,85,0.00,,,0.01,WeatherCatV1.21B27,2013-08-05 01:21:00,
2013-08-04 21:26:00,66.8,61.8,30.16,ENE,71,0.0,1.0,84,0.00,,,0.01,WeatherCatV1.21B27,2013-08-05 01:26:00,
2013-08-04 21:31:00,66.9,61.9,30.16,ENE,71,1.0,1.0,84,0.00,,,0.01,WeatherCatV1.21B27,2013-08-05 01:31:00,
2013-08-04 21:36:00,66.8,61.8,30.16,ENE,71,0.0,1.0,84,0.00,,,0.01,WeatherCatV1.21B27,2013-08-05 01:36:00,
2013-08-04 21:41:00,66.8,61.8,30.16,ENE,71,0.0,1.0,84,0.00,,,0.01,WeatherCatV1.21B27,2013-08-05 01:41:00,
2013-08-04 21:45:00,66.8,61.8,30.17,ENE,71,1.0,1.0,84,0.00,,,0.01,WeatherCatV1.21B27,2013-08-05 01:45:00,
2013-08-04 21:50:00,66.8,61.8,30.17,ENE,71,0.0,0.0,84,0.00,,,0.01,WeatherCatV1.21B27,2013-08-05 01:50:00,
2013-08-04 21:55:00,66.7,61.7,30.17,ENE,70,0.0,0.0,84,0.00,,,0.01,WeatherCatV1.21B27,2013-08-05 01:55:00,
2013-08-04 22:01:00,66.7,61.7,30.17,ENE,70,0.0,0.0,84,0.00,,,0.01,WeatherCatV1.21B27,2013-08-05 02:01:00,
2013-08-04 22:06:00,66.6,62.3,30.17,ENE,71,0.0,0.0,86,0.00,,,0.01,WeatherCatV1.21B27,2013-08-05 02:06:00,
2013-08-04 22:11:00,66.5,62.5,30.17,ENE,70,0.0,0.0,87,0.00,,,0.01,WeatherCatV1.21B27,2013-08-05 02:11:00,
2013-08-04 22:16:00,66.3,62.3,30.17,ENE,71,0.0,0.0,87,0.00,,,0.01,WeatherCatV1.21B27,2013-08-05 02:16:00,
2013-08-04 22:21:00,66.1,62.4,30.18,ENE,71,0.0,0.0,88,0.00,,,0.01,WeatherCatV1.21B27,2013-08-05 02:21:00,
2013-08-04 22:26:00,66.1,62.1,30.18,ENE,71,0.0,0.0,87,0.00,,,0.01,WeatherCatV1.21B27,2013-08-05 02:26:00,
2013-08-04 22:30:00,66.2,61.5,30.18,ENE,71,0.0,1.0,85,0.00,,,0.01,WeatherCatV1.21B27,2013-08-05 02:30:00,
2013-08-04 22:35:00,66.2,61.2,30.18,ENE,70,0.0,0.0,84,0.00,,,0.01,WeatherCatV1.21B27,2013-08-05 02:35:00,
2013-08-04 22:41:00,66.4,61.1,30.18,ENE,70,0.0,1.0,83,0.00,,,0.01,WeatherCatV1.21B27,2013-08-05 02:41:00,
2013-08-04 22:51:00,66.5,61.2,30.17,ENE,70,0.0,0.0,83,0.00,,,0.01,WeatherCatV1.21B27,2013-08-05 02:51:00,
2013-08-04 22:56:00,66.6,61.3,30.17,ENE,70,0.0,1.0,83,0.00,,,0.01,WeatherCatV1.21B27,2013-08-05 02:56:00,
2013-08-04 23:00:00,66.5,61.2,30.18,ENE,70,0.0,1.0,83,0.00,,,0.01,WeatherCatV1.21B27,2013-08-05 03:00:00,
2013-08-04 23:06:00,66.5,61.2,30.17,ENE,70,0.0,0.0,83,0.00,,,0.01,WeatherCatV1.21B27,2013-08-05 03:06:00,
2013-08-04 23:11:00,66.5,60.8,30.17,ENE,70,0.0,1.0,82,0.00,,,0.01,WeatherCatV1.21B27,2013-08-05 03:11:00,
2013-08-04 23:16:00,66.5,61.5,30.17,ENE,70,0.0,0.0,84,0.00,,,0.01,WeatherCatV1.21B27,2013-08-05 03:16:00,
2013-08-04 23:20:00,66.4,61.4,30.18,ENE,70,0.0,0.0,84,0.00,,,0.01,WeatherCatV1.21B27,2013-08-05 03:20:00,
2013-08-04 23:25:00,66.2,61.5,30.18,ENE,70,0.0,0.0,85,0.00,,,0.01,WeatherCatV1.21B27,2013-08-05 03:25:00,
2013-08-04 23:31:00,65.9,61.3,30.17,ENE,70,0.0,0.0,85,0.00,,,0.01,WeatherCatV1.21B27,2013-08-05 03:31:00,
2013-08-04 23:35:00,65.7,61.4,30.17,ENE,70,0.0,0.0,86,0.00,,,0.01,WeatherCatV1.21B27,2013-08-05 03:35:00,
2013-08-04 23:41:00,65.6,61.3,30.17,ENE,70,0.0,0.0,86,0.00,,,0.01,WeatherCatV1.21B27,2013-08-05 03:41:00,
2013-08-04 23:46:00,65.6,61.6,30.17,ENE,70,0.0,0.0,87,0.00,,,0.01,WeatherCatV1.21B27,2013-08-05 03:46:00,
2013-08-04 23:50:00,65.6,61.6,30.17,ENE,70,0.0,0.0,87,0.00,,,0.01,WeatherCatV1.21B27,2013-08-05 03:50:00,
2013-08-04 23:55:00,65.5,61.5,30.17,ENE,70,0.0,0.0,87,0.00,,,0.01,WeatherCatV1.21B27,2013-08-05 03:55:00,